createdAt,value
2022-08-25T07:15:39.624Z,6.82
2022-08-25T07:17:12.087Z,7.25
2022-08-25T07:18:46.042Z,7.03
2022-08-25T07:20:19.331Z,6.43
2022-08-25T07:21:53.508Z,6.65
2022-08-25T07:23:26.372Z,6.72
2022-08-25T07:24:58.361Z,6.60
2022-08-25T07:26:38.938Z,6.55
2022-08-25T07:28:11.425Z,6.45
2022-08-25T07:29:44.999Z,9.45
2022-08-25T07:31:18.825Z,6.78
2022-08-25T07:32:51.346Z,6.35
2022-08-25T07:34:52.609Z,6.65
2022-08-25T07:36:25.970Z,6.60
2022-08-25T07:39:31.630Z,6.32
2022-08-25T07:42:36.451Z,6.65
2022-08-25T07:44:12.300Z,6.70
2022-08-25T07:45:49.409Z,7.85
2022-08-25T07:47:23.061Z,8.75
2022-08-25T07:48:55.325Z,6.55
2022-08-25T07:50:30.119Z,7.22
2022-08-25T07:52:05.050Z,8.40
2022-08-25T07:53:39.676Z,6.75
2022-08-25T07:55:12.392Z,6.25
2022-08-25T07:56:50.472Z,5.80
2022-08-25T07:58:22.672Z,7.53
2022-08-25T07:59:55.107Z,7.22
2022-08-25T08:01:27.433Z,6.72
2022-08-25T08:03:01.234Z,6.47
2022-08-25T08:04:37.441Z,6.28
2022-08-25T08:06:11.377Z,5.80
2022-08-25T08:07:43.994Z,5.90
2022-08-25T08:09:16.874Z,5.57
2022-08-25T08:11:05.421Z,6.30
2022-08-25T08:12:38.228Z,5.35
2022-08-25T08:14:10.636Z,5.60
2022-08-25T08:15:44.138Z,6.43
2022-08-25T08:17:16.642Z,7.72
2022-08-25T08:18:49.588Z,5.78
2022-08-25T08:20:23.491Z,6.30
2022-08-25T08:21:55.781Z,6.38
2022-08-25T08:23:30.477Z,6.13
2022-08-25T08:26:57.548Z,7.60
2022-08-25T08:28:28.399Z,6.85
2022-08-25T08:30:01.037Z,6.40
2022-08-25T08:31:34.954Z,5.95
2022-08-25T08:33:11.322Z,6.20
2022-08-25T08:34:44.631Z,7.40
2022-08-25T08:36:17.277Z,5.90
2022-08-25T08:37:49.523Z,6.03
2022-08-25T08:39:27.918Z,6.50
2022-08-25T08:42:07.664Z,6.00
2022-08-25T08:43:36.075Z,6.05
2022-08-25T08:45:24.509Z,5.30
2022-08-25T08:47:09.101Z,5.82
2022-08-25T08:48:53.723Z,5.57
2022-08-25T08:50:37.925Z,5.88
2022-08-25T08:52:10.862Z,6.28
2022-08-25T08:54:16.595Z,6.43
2022-08-25T08:55:55.685Z,6.43
2022-08-25T08:57:29.440Z,5.95
2022-08-25T08:59:12.551Z,6.28
2022-08-25T09:00:52.223Z,6.33
2022-08-25T09:02:49.903Z,6.15
2022-08-25T09:04:32.796Z,5.60
2022-08-25T09:06:18.568Z,6.18
2022-08-25T09:08:01.858Z,5.82
2022-08-25T09:09:36.074Z,5.78
2022-08-25T09:11:10.193Z,6.03
2022-08-25T09:13:04.981Z,5.95
2022-08-25T09:31:03.154Z,5.50
2022-08-25T09:32:48.882Z,4.78
2022-08-25T09:34:32.798Z,5.07
2022-08-25T09:36:09.099Z,5.30
2022-08-25T09:37:41.572Z,5.53
2022-08-25T09:39:14.215Z,5.53
2022-08-25T09:40:52.682Z,5.78
2022-08-25T09:42:50.098Z,4.22
2022-08-25T09:44:28.989Z,4.65
2022-08-25T09:46:04.073Z,4.93
2022-08-25T09:47:43.821Z,4.78
2022-08-25T09:49:17.418Z,9.32
2022-08-25T09:52:22.618Z,5.80
2022-08-25T09:54:20.940Z,6.35
2022-08-25T09:56:05.071Z,5.40
2022-08-25T09:57:48.455Z,4.88
2022-08-25T09:59:35.852Z,4.43
2022-08-25T10:01:22.815Z,4.70
2022-08-25T10:03:12.191Z,4.57
2022-08-25T10:04:44.657Z,5.18
2022-08-25T10:06:19.188Z,4.78
2022-08-25T10:07:58.596Z,4.40
2022-08-25T10:09:42.631Z,4.45
2022-08-25T10:11:34.482Z,4.40
2022-08-25T10:13:16.918Z,4.70
2022-08-25T10:14:55.585Z,4.22
2022-08-25T10:16:36.447Z,4.15
2022-08-25T10:18:30.507Z,4.80
2022-08-25T10:20:10.347Z,4.70
2022-08-25T10:21:44.293Z,4.60
2022-08-25T10:23:17.224Z,4.55
2022-08-25T10:24:49.946Z,5.43
2022-08-25T10:26:41.630Z,4.60
2022-08-25T10:28:33.504Z,4.75
2022-08-25T10:30:14.866Z,4.93
2022-08-25T10:31:58.329Z,4.85
2022-08-25T10:35:15.062Z,4.53
2022-08-25T10:37:12.023Z,4.50
2022-08-25T10:39:01.489Z,4.53
2022-08-25T10:40:58.339Z,5.00
2022-08-25T10:42:33.692Z,4.32
2022-08-25T10:44:34.659Z,4.22
2022-08-25T10:46:25.174Z,4.22
2022-08-25T10:47:57.861Z,4.57
2022-08-25T10:49:55.529Z,4.32
2022-08-25T10:51:52.303Z,4.75
2022-08-25T10:53:29.769Z,4.35
2022-08-25T10:55:18.489Z,4.40
2022-08-25T10:57:03.507Z,4.47
2022-08-25T10:58:55.453Z,4.90
2022-08-25T11:00:37.596Z,4.50
2022-08-25T11:02:50.949Z,4.85
2022-08-25T11:04:45.541Z,4.32
2022-08-25T11:06:38.251Z,4.60
2022-08-25T11:08:29.098Z,4.35
2022-08-25T11:10:10.205Z,4.78
2022-08-25T11:12:11.574Z,4.85
2022-08-25T11:13:46.622Z,4.13
2022-08-25T11:15:27.147Z,4.00
2022-08-25T11:17:06.466Z,4.38
2022-08-25T11:19:05.549Z,4.13
2022-08-25T11:20:47.658Z,3.72
2022-08-25T11:22:42.897Z,4.40
2022-08-25T11:24:38.229Z,4.15
2022-08-25T11:26:15.669Z,4.70
2022-08-25T11:27:59.185Z,4.20
2022-08-25T11:29:37.582Z,4.30
2022-08-25T11:31:12.665Z,4.40
2022-08-25T11:32:48.858Z,4.40
2022-08-25T11:34:22.219Z,3.88
2022-08-25T11:35:58.786Z,4.22
2022-08-25T11:37:33.341Z,3.60
2022-08-25T11:39:17.889Z,4.00
2022-08-25T11:41:16.156Z,3.80
2022-08-25T11:42:48.454Z,3.97
2022-08-25T11:44:38.781Z,3.97
2022-08-25T11:46:29.142Z,3.95
2022-08-25T11:48:25.913Z,4.05
2022-08-25T11:50:05.962Z,4.70
2022-08-25T11:51:48.348Z,4.22
2022-08-25T11:53:28.125Z,3.95
2022-08-25T11:55:15.902Z,3.78
2022-08-25T11:57:11.274Z,4.10
2022-08-25T11:58:54.393Z,3.85
2022-08-25T12:00:39.670Z,3.72
2022-08-25T12:02:33.742Z,3.90
2022-08-25T12:04:16.609Z,3.90
2022-08-25T12:06:14.426Z,3.88
2022-08-25T12:08:12.673Z,3.83
2022-08-25T12:09:50.676Z,4.38
2022-08-25T12:11:46.431Z,3.78
2022-08-25T12:13:45.699Z,3.67
2022-08-25T12:15:26.112Z,3.70
2022-08-25T12:17:00.858Z,4.25
2022-08-25T12:18:33.227Z,3.80
2022-08-25T12:20:06.093Z,3.95
2022-08-25T12:21:38.436Z,3.30
2022-08-25T12:23:10.884Z,3.97
2022-08-25T12:24:48.155Z,3.95
2022-08-25T12:26:25.076Z,4.00
2022-08-25T12:28:09.222Z,4.00
2022-08-25T12:29:53.957Z,3.65
2022-08-25T12:31:33.387Z,3.38
2022-08-25T12:33:12.072Z,3.67
2022-08-25T12:34:47.790Z,3.70
2022-08-25T12:36:35.311Z,4.05
2022-08-25T12:38:44.188Z,3.65
2022-08-25T12:40:38.339Z,3.53
2022-08-25T12:42:33.442Z,3.47
2022-08-25T12:44:43.049Z,3.35
2022-08-25T12:46:29.845Z,3.58
2022-08-25T12:48:26.700Z,4.03
2022-08-25T12:50:28.648Z,4.88
2022-08-25T12:52:13.231Z,4.53
2022-08-25T12:54:19.121Z,4.13
2022-08-25T12:56:02.752Z,3.72
2022-08-25T12:57:40.988Z,4.43
2022-08-25T12:59:24.195Z,3.67
2022-08-25T13:01:35.852Z,4.53
2022-08-25T13:03:46.012Z,3.55
2022-08-25T13:05:21.068Z,3.97
2022-08-25T13:07:03.791Z,3.85
2022-08-25T13:09:08.290Z,4.03
2022-08-25T13:10:53.231Z,4.05
2022-08-25T13:12:51.948Z,3.58
2022-08-25T13:14:37.867Z,4.30
2022-08-25T13:16:25.600Z,3.35
2022-08-25T13:18:21.237Z,3.88
2022-08-25T13:20:11.868Z,3.38
2022-08-25T13:21:44.743Z,3.50
2022-08-25T13:23:29.187Z,4.57
2022-08-25T13:25:01.701Z,3.72
2022-08-25T13:26:38.500Z,3.90
2022-08-25T13:28:36.362Z,3.45
2022-08-25T13:30:23.620Z,3.95
2022-08-25T13:32:01.025Z,3.67
2022-08-25T13:33:34.583Z,3.58
2022-08-25T13:35:26.593Z,3.78
2022-08-25T13:37:30.551Z,3.70
2022-08-25T13:39:45.546Z,4.90
2022-08-25T13:41:28.886Z,3.63
2022-08-25T13:43:06.461Z,4.57
2022-08-25T13:44:42.031Z,3.40
2022-08-25T13:46:24.919Z,4.45
2022-08-25T13:47:58.831Z,3.25
2022-08-25T13:49:31.473Z,3.85
2022-08-25T13:51:31.335Z,4.07
2022-08-25T13:53:11.334Z,4.38
2022-08-25T13:54:45.239Z,3.42
2022-08-25T13:56:38.735Z,4.63
2022-08-25T13:58:16.751Z,3.95
2022-08-25T14:00:01.791Z,3.80
2022-08-25T14:01:48.703Z,3.60
2022-08-25T14:03:38.052Z,4.22
2022-08-25T14:05:11.784Z,4.45
2022-08-25T14:06:44.752Z,3.42
2022-08-25T14:08:33.148Z,4.10
2022-08-25T14:10:07.311Z,3.53
2022-08-25T14:11:45.393Z,3.58
2022-08-25T14:13:32.831Z,4.38
2022-08-25T14:15:10.591Z,3.35
2022-08-25T14:16:52.009Z,3.92
2022-08-25T14:18:31.947Z,4.30
2022-08-25T14:20:07.393Z,3.33
2022-08-25T14:21:42.045Z,4.80
2022-08-25T14:23:20.671Z,3.58
2022-08-25T14:24:54.559Z,3.53
2022-08-25T14:28:06.801Z,4.50
2022-08-25T14:29:41.036Z,3.92
2022-08-25T14:31:46.550Z,3.85
2022-08-25T14:33:21.438Z,4.50
2022-08-25T14:34:53.911Z,4.53
2022-08-25T14:36:31.391Z,3.92
2022-08-25T14:38:11.932Z,4.00
2022-08-25T14:39:45.567Z,3.40
2022-08-25T14:41:18.694Z,3.60
2022-08-25T14:44:23.790Z,4.22
2022-08-25T14:46:01.112Z,3.47
2022-08-25T14:47:35.152Z,3.72
2022-08-25T14:49:10.768Z,4.32
2022-08-25T14:50:43.231Z,4.20
2022-08-25T14:52:24.911Z,3.67
2022-08-25T14:54:01.388Z,3.63
2022-08-25T14:55:33.871Z,3.95
2022-08-25T14:57:09.147Z,3.65
2022-08-25T14:58:48.523Z,4.15
2022-08-25T15:00:27.391Z,4.13
2022-08-25T15:02:00.919Z,4.68
2022-08-25T15:03:47.440Z,3.80
2022-08-25T15:05:28.354Z,3.22
2022-08-25T15:07:02.780Z,3.92
2022-08-25T15:08:54.436Z,4.15
2022-08-25T15:10:26.669Z,3.85
2022-08-25T15:12:01.390Z,3.83
2022-08-25T15:13:33.637Z,4.28
2022-08-25T15:15:07.879Z,4.25
2022-08-25T15:16:47.094Z,5.43
2022-08-25T15:18:22.511Z,3.58
2022-08-25T15:19:55.226Z,4.47
2022-08-25T15:21:27.956Z,4.18
2022-08-25T15:23:01.395Z,3.80
2022-08-25T15:26:16.016Z,3.75
2022-08-25T15:27:49.783Z,3.70
2022-08-25T15:29:23.947Z,4.43
2022-08-25T15:30:56.352Z,3.95
2022-08-25T15:32:29.151Z,3.83
2022-08-25T15:34:01.632Z,3.80
2022-08-25T15:35:35.001Z,4.43
2022-08-25T15:38:56.427Z,4.32
2022-08-25T15:40:29.268Z,4.15
2022-08-25T15:42:01.630Z,4.05
2022-08-25T15:43:33.951Z,3.88
2022-08-25T15:45:08.199Z,4.50
2022-08-25T15:46:45.131Z,3.72
2022-08-25T15:48:22.110Z,4.00
2022-08-25T15:50:11.700Z,4.72
2022-08-25T15:51:50.828Z,4.28
2022-08-25T15:54:56.190Z,6.20
2022-08-25T15:56:28.588Z,4.82
2022-08-25T15:59:33.708Z,4.50
2022-08-25T16:04:56.500Z,5.38
2022-08-25T16:06:28.905Z,5.57
2022-08-25T16:08:01.159Z,4.38
2022-08-25T16:14:50.111Z,5.38
2022-08-25T16:16:26.783Z,5.65
2022-08-25T16:21:29.028Z,4.57
2022-08-25T16:23:04.128Z,4.35
2022-08-25T16:24:38.751Z,4.47
2022-08-25T16:26:13.110Z,4.38
2022-08-25T16:27:45.796Z,3.85
2022-08-25T16:29:18.834Z,4.45
2022-08-25T16:30:53.303Z,3.92
2022-08-25T16:32:26.120Z,4.57
2022-08-25T16:33:59.709Z,4.20
2022-08-25T16:35:32.108Z,3.90
2022-08-25T16:37:04.882Z,3.85
2022-08-25T16:38:41.869Z,4.10
2022-08-25T16:40:25.027Z,4.72
2022-08-25T16:41:58.892Z,4.53
2022-08-25T16:43:31.029Z,4.25
2022-08-25T16:46:44.408Z,4.10
2022-08-25T16:48:16.887Z,4.47
2022-08-25T16:49:50.268Z,4.10
2022-08-25T16:51:29.521Z,4.47
2022-08-25T16:53:23.920Z,4.30
2022-08-25T16:55:16.134Z,4.20
2022-08-25T16:56:48.654Z,4.25
2022-08-25T16:58:26.275Z,4.47
2022-08-25T17:00:00.447Z,4.07
2022-08-25T17:01:36.359Z,3.70
2022-08-25T17:03:08.914Z,4.47
2022-08-25T17:04:41.284Z,4.07
2022-08-25T17:06:15.148Z,4.10
2022-08-25T17:08:11.124Z,4.28
2022-08-25T17:09:43.263Z,4.97
2022-08-25T17:11:22.266Z,4.65
2022-08-25T17:12:54.491Z,4.00
2022-08-25T17:14:26.748Z,4.70
2022-08-25T17:16:01.640Z,4.23
2022-08-25T17:17:37.258Z,4.38
2022-08-25T17:19:12.997Z,4.90
2022-08-25T17:20:45.848Z,4.43
2022-08-25T17:22:18.139Z,4.75
2022-08-25T17:23:51.385Z,4.05
2022-08-25T17:25:23.784Z,5.05
2022-08-25T17:27:01.429Z,4.38
2022-08-25T17:28:34.672Z,4.22
2022-08-25T17:30:07.747Z,4.03
2022-08-25T17:31:40.402Z,4.15
2022-08-25T17:33:15.192Z,4.93
2022-08-25T17:34:47.565Z,5.03
2022-08-25T17:36:20.101Z,4.20
2022-08-25T17:37:59.537Z,4.50
2022-08-25T17:39:31.688Z,4.97
2022-08-25T17:41:08.393Z,4.75
2022-08-25T17:42:41.252Z,4.60
2022-08-25T17:44:14.125Z,4.45
2022-08-25T17:45:49.029Z,4.30
2022-08-25T17:47:21.156Z,4.40
2022-08-25T17:48:53.970Z,4.75
2022-08-25T17:50:27.164Z,4.50
2022-08-25T17:53:32.191Z,4.40
2022-08-25T17:55:04.690Z,3.85
2022-08-25T17:56:41.610Z,4.75
2022-08-25T18:01:43.226Z,4.25
2022-08-25T18:03:15.704Z,4.43
2022-08-25T18:04:48.217Z,4.03
2022-08-25T18:06:21.294Z,4.82
2022-08-25T18:07:54.568Z,4.93
2022-08-25T18:09:26.770Z,4.32
2022-08-25T18:10:59.472Z,5.05
2022-08-25T18:12:31.912Z,4.88
2022-08-25T18:14:04.357Z,4.22
2022-08-25T18:15:42.579Z,4.40
2022-08-25T18:17:15.054Z,3.97
2022-08-25T18:18:55.134Z,4.50
2022-08-25T18:20:29.952Z,4.90
2022-08-25T18:22:04.732Z,4.03
2022-08-25T18:23:36.778Z,4.55
2022-08-25T18:26:43.765Z,4.70
2022-08-25T18:28:16.953Z,3.90
2022-08-25T18:32:59.823Z,4.10
2022-08-25T18:34:32.751Z,4.70
2022-08-25T18:36:09.466Z,4.40
2022-08-25T18:38:00.302Z,4.05
2022-08-25T18:39:51.080Z,3.85
2022-08-25T18:41:23.402Z,3.70
2022-08-25T18:43:01.353Z,4.40
2022-08-25T18:44:36.619Z,4.95
2022-08-25T18:46:09.015Z,3.80
2022-08-25T18:47:42.465Z,4.43
2022-08-25T18:49:16.125Z,4.85
2022-08-25T18:50:51.881Z,4.57
2022-08-25T18:52:24.421Z,4.40
2022-08-25T18:53:59.150Z,4.53
2022-08-25T18:55:33.867Z,5.55
2022-08-25T18:57:08.215Z,4.45
2022-08-25T18:58:41.266Z,4.15
2022-08-25T19:00:16.772Z,4.60
2022-08-25T19:01:49.402Z,4.70
2022-08-25T19:03:23.747Z,3.88
2022-08-25T19:04:56.301Z,4.88
2022-08-25T19:06:29.906Z,4.50
2022-08-25T19:08:07.881Z,4.32
2022-08-25T19:09:40.455Z,4.70
2022-08-25T19:11:13.218Z,4.78
2022-08-25T19:12:47.206Z,4.68
2022-08-25T19:14:26.271Z,4.90
2022-08-25T19:15:59.011Z,4.93
2022-08-25T19:17:32.027Z,5.32
2022-08-25T19:19:14.756Z,5.00
2022-08-25T19:20:47.395Z,5.70
2022-08-25T19:22:38.474Z,4.68
2022-08-25T19:24:13.792Z,4.72
2022-08-25T19:25:46.159Z,4.07
2022-08-25T19:27:19.480Z,4.57
2022-08-25T19:28:54.947Z,4.97
2022-08-25T19:30:30.725Z,4.10
2022-08-25T19:32:03.109Z,4.80
2022-08-25T19:33:44.710Z,4.80
2022-08-25T19:35:30.453Z,4.57
2022-08-25T19:37:05.838Z,4.82
2022-08-25T19:38:38.705Z,4.40
2022-08-25T19:40:12.281Z,4.75
2022-08-25T19:41:47.983Z,4.47
2022-08-25T19:43:21.769Z,4.28
2022-08-25T19:44:55.953Z,5.30
2022-08-25T19:46:35.363Z,4.15
2022-08-25T19:48:08.504Z,4.63
2022-08-25T19:49:40.901Z,4.38
2022-08-25T19:51:16.407Z,4.07
2022-08-25T19:52:51.636Z,4.57
2022-08-25T19:54:46.414Z,4.78
2022-08-25T19:56:18.747Z,4.68
2022-08-25T19:57:51.918Z,4.87
2022-08-25T19:59:40.509Z,4.35
2022-08-25T20:01:16.578Z,4.10
2022-08-25T20:02:51.666Z,4.57
2022-08-25T20:04:24.518Z,4.40
2022-08-25T20:05:57.102Z,5.07
2022-08-25T20:07:33.029Z,4.38
2022-08-25T20:09:05.886Z,5.03
2022-08-25T20:10:41.872Z,4.57
2022-08-25T20:13:47.653Z,5.03
2022-08-25T20:15:21.973Z,4.97
2022-08-25T20:16:55.991Z,4.63
2022-08-25T20:18:28.613Z,5.10
2022-08-25T20:20:04.541Z,5.13
2022-08-25T20:21:39.646Z,4.65
2022-08-25T20:23:30.664Z,4.82
2022-08-25T20:25:13.303Z,5.03
2022-08-25T20:26:46.423Z,4.32
2022-08-25T20:29:54.340Z,4.68
2022-08-25T20:31:27.082Z,5.10
2022-08-25T20:33:00.084Z,4.65
2022-08-25T20:34:33.541Z,4.80
2022-08-25T20:36:06.418Z,4.80
2022-08-25T20:37:39.235Z,4.68
2022-08-25T20:39:11.857Z,5.25
2022-08-25T20:40:44.485Z,4.70
2022-08-25T20:42:17.178Z,4.95
2022-08-25T20:43:49.599Z,4.72
2022-08-25T20:45:22.838Z,5.18
2022-08-25T20:48:27.856Z,5.18
2022-08-25T20:50:03.353Z,5.55
2022-08-25T20:51:39.080Z,4.60
2022-08-25T20:53:13.827Z,5.10
2022-08-25T20:54:46.912Z,6.15
2022-08-25T20:56:24.106Z,5.70
2022-08-25T20:57:56.277Z,4.72
2022-08-25T20:59:29.436Z,5.22
2022-08-25T21:01:01.816Z,5.65
2022-08-25T21:02:34.340Z,4.83
2022-08-25T21:04:09.387Z,5.28
2022-08-25T21:05:42.899Z,5.13
2022-08-25T21:07:15.518Z,5.63
2022-08-25T21:08:48.117Z,4.47
2022-08-25T21:10:20.713Z,5.55
2022-08-25T21:11:54.215Z,4.45
2022-08-25T21:20:08.831Z,4.82
2022-08-25T21:21:42.138Z,5.07
2022-08-25T21:23:15.742Z,4.72
2022-08-25T21:24:48.138Z,4.70
2022-08-25T21:26:23.691Z,5.33
2022-08-25T21:27:58.384Z,5.30
2022-08-25T21:29:30.552Z,4.63
2022-08-25T21:31:06.935Z,5.45
2022-08-25T21:32:40.266Z,5.18
2022-08-25T21:34:28.787Z,5.30
2022-08-25T21:36:01.851Z,4.88
2022-08-25T21:37:35.567Z,4.63
2022-08-25T21:39:07.898Z,5.32
2022-08-25T21:40:40.464Z,5.13
2022-08-25T21:42:17.259Z,4.75
2022-08-25T21:43:50.708Z,5.50
2022-08-25T21:45:22.874Z,5.97
2022-08-25T21:46:54.993Z,5.68
2022-08-25T21:48:30.541Z,5.28
2022-08-25T21:50:02.908Z,6.28
2022-08-25T21:51:40.782Z,5.37
2022-08-25T21:53:13.326Z,5.40
2022-08-25T21:54:45.785Z,5.47
2022-08-25T21:56:22.696Z,5.80
2022-08-25T21:57:58.780Z,5.70
2022-08-25T21:59:33.511Z,5.80
2022-08-25T22:01:10.948Z,6.38
2022-08-25T22:02:46.119Z,5.60
2022-08-25T22:04:18.359Z,6.00
2022-08-25T22:05:50.829Z,6.28
2022-08-25T22:07:24.648Z,5.78
2022-08-25T22:08:57.085Z,5.50
2022-08-25T22:23:21.929Z,5.80
2022-08-25T22:25:00.341Z,5.90
2022-08-25T22:26:34.423Z,5.47
2022-08-25T22:28:07.170Z,5.78
2022-08-25T22:29:46.859Z,5.72
2022-08-25T22:32:53.137Z,6.05
2022-08-25T22:34:30.697Z,5.80
2022-08-25T22:36:12.792Z,6.47
2022-08-25T22:37:44.971Z,5.45
2022-08-25T22:39:17.106Z,5.93
2022-08-25T22:40:49.260Z,5.93
2022-08-25T22:42:25.602Z,6.35
2022-08-25T22:43:58.726Z,6.18
2022-08-25T22:45:32.876Z,5.97
2022-08-25T22:47:06.001Z,5.63
2022-08-25T22:48:38.578Z,5.72
2022-08-25T22:50:11.061Z,6.35
2022-08-25T22:51:43.342Z,5.33
2022-08-25T22:54:54.491Z,5.53
2022-08-25T22:56:33.335Z,5.85
2022-08-25T22:58:05.358Z,6.40
2022-08-25T22:59:38.536Z,5.90
2022-08-25T23:01:15.802Z,5.53
2022-08-25T23:02:48.956Z,5.72
2022-08-25T23:04:21.436Z,5.40
2022-08-25T23:05:55.501Z,6.18
2022-08-25T23:07:29.729Z,5.40
2022-08-25T23:09:02.580Z,5.95
2022-08-25T23:10:35.301Z,5.35
2022-08-25T23:12:07.771Z,5.53
2022-08-25T23:13:42.034Z,5.63
2022-08-25T23:15:14.270Z,5.38
2022-08-25T23:16:47.054Z,5.50
2022-08-25T23:18:19.225Z,5.18
2022-08-25T23:19:51.981Z,5.55
2022-08-25T23:21:43.257Z,6.53
2022-08-25T23:23:15.438Z,5.55
2022-08-25T23:24:49.228Z,6.25
2022-08-25T23:26:22.071Z,5.50
2022-08-25T23:27:54.308Z,5.40
2022-08-25T23:29:27.970Z,5.15
2022-08-25T23:31:00.267Z,5.85
2022-08-25T23:32:32.295Z,5.32
2022-08-25T23:34:05.871Z,5.15
2022-08-25T23:35:38.181Z,5.28
2022-08-25T23:38:46.085Z,5.63
2022-08-25T23:40:24.618Z,5.63
2022-08-25T23:41:56.891Z,5.40
2022-08-25T23:43:28.899Z,5.63
2022-08-25T23:45:01.029Z,5.18
2022-08-25T23:46:35.755Z,5.25
2022-08-25T23:49:40.253Z,5.00
2022-08-25T23:51:13.141Z,5.03
2022-08-25T23:52:45.264Z,4.70
2022-08-25T23:54:19.793Z,5.20
2022-08-25T23:55:54.560Z,4.93
2022-08-25T23:57:27.460Z,5.70
2022-08-25T23:59:01.552Z,4.68
